Time;durP1;ratioP1;P1;durP2;ratioP2;P2;SDS_P1;SDS_P2;PMS_P1;PMS_P2;Temp;Humidity;BMP_temperature;BMP_pressure;BME280_temperature;BME280_humidity;BME280_pressure;Samples;Min_cycle;Max_cycle;Signal;HPM_P1;HPM_P2
2021/11/20 00:00:06;;;;;;;18.02;11.27;;;6.50;70.30;;;;;;5025571;28;20034;-69
2021/11/20 00:02:32;;;;;;;26.80;11.77;;;6.50;70.50;;;;;;5021879;28;20026;-69
2021/11/20 00:04:59;;;;;;;17.45;11.07;;;6.50;70.80;;;;;;5016753;28;20029;-69
2021/11/20 00:07:25;;;;;;;19.02;11.60;;;6.50;71.00;;;;;;5022933;28;20384;-70
2021/11/20 00:09:51;;;;;;;17.25;10.80;;;6.50;71.20;;;;;;5025257;28;20029;-70
2021/11/20 00:12:21;;;;;;;17.95;10.43;;;6.50;71.30;;;;;;5024372;28;20078;-69
2021/11/20 00:14:48;;;;;;;16.23;10.85;;;6.50;71.20;;;;;;5025765;28;20034;-70
2021/11/20 00:17:15;;;;;;;17.83;11.23;;;6.50;71.20;;;;;;5023072;28;20076;-69
2021/11/20 00:19:41;;;;;;;16.65;10.70;;;6.40;71.00;;;;;;5027012;28;20037;-69
2021/11/20 00:22:15;;;;;;;18.08;10.55;;;6.40;70.90;;;;;;5025102;28;20022;-69
2021/11/20 00:25:00;;;;;;;15.30;10.70;;;6.40;70.80;;;;;;5023425;28;20026;-70
2021/11/20 00:27:33;;;;;;;18.02;10.60;;;6.40;70.80;;;;;;5026795;28;20017;-70
2021/11/20 00:30:12;;;;;;;16.65;10.05;;;6.30;71.60;;;;;;5030343;28;20025;-70
2021/11/20 00:32:49;;;;;;;17.75;10.43;;;6.30;70.70;;;;;;5019251;28;20021;-69
2021/11/20 00:35:19;;;;;;;15.77;9.82;;;6.30;70.70;;;;;;5019705;28;20120;-69
2021/11/20 00:37:46;;;;;;;16.45;9.98;;;6.30;70.90;;;;;;5028563;28;20029;-70
2021/11/20 00:40:24;;;;;;;15.25;10.13;;;6.20;70.60;;;;;;5028182;28;20550;-70
2021/11/20 00:42:49;;;;;;;18.45;11.00;;;6.20;70.60;;;;;;5024320;28;20026;-69
2021/11/20 00:45:15;;;;;;;16.35;9.68;;;6.20;70.60;;;;;;5028023;28;20028;-70
2021/11/20 00:47:42;;;;;;;12.02;9.07;;;6.20;70.80;;;;;;5028419;28;20050;-69
2021/11/20 00:50:08;;;;;;;24.85;10.50;;;6.10;71.10;;;;;;5032068;28;20034;-69
2021/11/20 00:52:34;;;;;;;15.45;9.40;;;6.20;71.50;;;;;;5029562;28;20029;-70
2021/11/20 00:55:00;;;;;;;14.98;9.98;;;6.10;71.60;;;;;;5023231;28;20045;-69
2021/11/20 00:57:26;;;;;;;17.83;11.15;;;6.10;71.70;;;;;;5024984;28;20049;-70
2021/11/20 00:59:52;;;;;;;18.52;10.80;;;6.10;72.00;;;;;;5014710;28;20108;-69
2021/11/20 01:02:18;;;;;;;17.23;10.00;;;6.10;72.40;;;;;;5030818;28;20049;-69
2021/11/20 01:04:44;;;;;;;17.65;10.65;;;6.00;72.40;;;;;;5022233;28;20034;-69
2021/11/20 01:07:10;;;;;;;22.85;12.77;;;6.00;72.50;;;;;;5030014;28;20083;-69
2021/11/20 01:09:41;;;;;;;20.15;11.57;;;6.00;72.60;;;;;;5024764;28;20033;-69
2021/11/20 01:12:14;;;;;;;21.67;12.60;;;6.00;72.80;;;;;;5026261;28;20029;-70
2021/11/20 01:14:42;;;;;;;23.98;12.82;;;6.00;72.80;;;;;;5014740;28;20033;-69
2021/11/20 01:17:10;;;;;;;21.23;11.13;;;5.90;72.90;;;;;;5031314;28;20021;-70
2021/11/20 01:19:37;;;;;;;22.88;11.80;;;5.90;73.20;;;;;;5020430;28;20120;-70
2021/11/20 01:22:07;;;;;;;21.00;11.27;;;5.90;73.40;;;;;;5027042;28;20026;-70
2021/11/20 01:24:32;;;;;;;19.40;10.27;;;5.90;73.60;;;;;;5029317;28;20091;-69
2021/11/20 01:26:58;;;;;;;18.15;11.10;;;5.90;73.70;;;;;;5029130;28;20492;-70
2021/11/20 01:29:26;;;;;;;21.00;10.75;;;5.90;73.70;;;;;;5027976;28;20092;-70
2021/11/20 01:31:53;;;;;;;16.88;10.60;;;5.90;73.80;;;;;;5027218;28;20036;-70
2021/11/20 01:34:22;;;;;;;17.23;10.15;;;5.90;73.90;;;;;;5024078;28;20026;-69
2021/11/20 01:36:50;;;;;;;17.45;10.23;;;5.80;74.00;;;;;;5022716;28;20026;-69
2021/11/20 01:39:22;;;;;;;16.67;11.00;;;5.80;74.00;;;;;;5027416;28;20092;-70
2021/11/20 01:41:53;;;;;;;20.73;11.98;;;5.80;74.10;;;;;;5024708;28;20026;-70
2021/11/20 01:44:22;;;;;;;17.85;10.13;;;5.80;74.30;;;;;;5030033;28;20025;-70
2021/11/20 01:46:53;;;;;;;19.52;10.93;;;5.80;74.40;;;;;;5060304;28;20423;-70
2021/11/20 01:49:30;;;;;;;17.73;10.95;;;5.80;74.40;;;;;;5025299;28;20109;-70
2021/11/20 01:52:26;;;;;;;16.60;10.05;;;6.00;74.50;;;;;;5027476;28;20033;-70
2021/11/20 01:55:19;;;;;;;17.60;10.60;;;6.00;74.30;;;;;;5027714;28;20048;-70
2021/11/20 01:57:49;;;;;;;20.65;10.80;;;6.10;74.10;;;;;;5025853;28;20033;-70
2021/11/20 02:00:38;;;;;;;15.57;10.32;;;6.20;74.00;;;;;;5028051;28;20089;-70
2021/11/20 02:03:22;;;;;;;21.98;11.73;;;6.30;73.90;;;;;;5027568;28;20067;-70
2021/11/20 02:06:25;;;;;;;18.83;11.95;;;6.40;73.80;;;;;;5028004;28;20096;-70
2021/11/20 02:09:27;;;;;;;20.30;10.60;;;6.50;73.90;;;;;;4945182;29;20082;-69
2021/11/20 02:11:59;;;;;;;19.48;11.13;;;6.60;73.90;;;;;;4948962;28;20039;-70
2021/11/20 02:14:26;;;;;;;21.50;11.27;;;6.70;73.90;;;;;;4949122;28;20442;-70
2021/11/20 02:17:18;;;;;;;22.40;12.15;;;6.70;73.90;;;;;;4949123;29;20427;-69
2021/11/20 02:19:54;;;;;;;21.73;11.43;;;6.80;74.10;;;;;;4950463;28;20090;-70
2021/11/20 02:22:40;;;;;;;22.60;12.63;;;6.90;74.10;;;;;;4949322;29;20035;-69
2021/11/20 02:25:06;;;;;;;19.88;11.43;;;6.90;74.30;;;;;;4948845;29;20047;-70
2021/11/20 02:27:35;;;;;;;18.55;10.85;;;7.00;74.40;;;;;;4949183;28;20050;-70
2021/11/20 02:30:38;;;;;;;21.58;10.38;;;7.10;74.50;;;;;;4949675;29;20042;-70
2021/11/20 02:33:08;;;;;;;19.00;10.90;;;7.20;74.70;;;;;;4902489;29;20423;-69
2021/11/20 02:35:38;;;;;;;27.08;12.82;;;7.30;74.70;;;;;;4892104;29;20504;-70
2021/11/20 02:38:07;;;;;;;24.98;12.27;;;7.30;76.60;;;;;;4892420;29;20099;-70
2021/11/20 02:40:33;;;;;;;24.95;13.25;;;7.40;76.80;;;;;;4896460;29;20052;-70
2021/11/20 02:43:01;;;;;;;23.45;12.10;;;7.40;76.70;;;;;;4935446;28;20043;-70
2021/11/20 02:45:29;;;;;;;26.13;13.00;;;7.50;76.80;;;;;;4967878;28;20034;-70
2021/11/20 02:47:56;;;;;;;26.02;12.68;;;7.50;76.80;;;;;;4965674;28;20051;-70
2021/11/20 02:50:37;;;;;;;34.22;13.77;;;7.60;77.70;;;;;;4967558;28;21213;-70
2021/11/20 02:53:10;;;;;;;29.58;13.88;;;7.60;77.60;;;;;;4964647;28;20045;-70
2021/11/20 02:55:41;;;;;;;29.08;13.63;;;7.60;77.40;;;;;;4968279;28;20062;-70
2021/11/20 02:58:07;;;;;;;27.02;13.85;;;7.70;77.60;;;;;;4960987;28;20458;-70
2021/11/20 03:00:34;;;;;;;25.58;13.82;;;7.70;77.70;;;;;;4967708;28;20042;-70
2021/11/20 03:03:00;;;;;;;27.88;14.02;;;7.80;78.80;;;;;;4968613;28;20047;-70
2021/11/20 03:05:26;;;;;;;26.67;13.75;;;7.80;79.40;;;;;;4958733;28;20550;-70
2021/11/20 03:07:52;;;;;;;33.72;13.80;;;7.80;81.90;;;;;;4996484;28;20037;-70
2021/11/20 03:10:18;;;;;;;34.90;12.50;;;7.80;82.20;;;;;;5024081;28;20030;-70
2021/11/20 03:12:44;;;;;;;33.38;14.52;;;7.90;83.30;;;;;;5024039;28;20088;-70
2021/11/20 03:15:11;;;;;;;34.20;14.63;;;7.90;84.00;;;;;;5018589;28;20026;-70
2021/11/20 03:17:37;;;;;;;37.75;15.10;;;7.90;84.40;;;;;;5015955;28;20022;-70
2021/11/20 03:20:06;;;;;;;33.40;14.00;;;7.90;84.20;;;;;;5028762;28;20029;-70
2021/11/20 03:22:37;;;;;;;26.95;12.18;;;7.90;85.20;;;;;;5024019;28;20014;-70
2021/11/20 03:25:04;;;;;;;37.22;15.77;;;7.90;85.40;;;;;;5025631;28;20102;-70
2021/11/20 03:27:30;;;;;;;40.78;15.95;;;7.80;85.60;;;;;;5025519;28;20507;-70
2021/11/20 03:29:56;;;;;;;35.53;15.30;;;7.90;85.30;;;;;;5027568;28;20025;-70
2021/11/20 03:32:21;;;;;;;33.60;14.45;;;7.90;85.30;;;;;;5028258;28;20029;-70
2021/11/20 03:34:47;;;;;;;35.53;15.20;;;7.90;85.30;;;;;;5020714;28;20507;-70
2021/11/20 03:37:14;;;;;;;35.13;15.15;;;8.00;85.40;;;;;;5023785;28;20021;-70
2021/11/20 03:39:41;;;;;;;36.33;15.77;;;8.00;85.50;;;;;;5025231;28;20033;-70
2021/11/20 03:42:07;;;;;;;33.17;14.88;;;8.00;85.80;;;;;;5026533;28;20112;-70
2021/11/20 03:44:34;;;;;;;28.92;13.23;;;8.00;85.90;;;;;;5010921;28;20054;-70
2021/11/20 03:47:00;;;;;;;37.03;17.27;;;8.00;86.10;;;;;;5027782;28;20085;-70
2021/11/20 03:49:26;;;;;;;41.70;16.65;;;8.00;86.00;;;;;;5017053;28;20516;-70
2021/11/20 03:51:51;;;;;;;37.95;16.75;;;8.00;86.20;;;;;;5026923;28;20033;-70
2021/11/20 03:54:17;;;;;;;39.72;18.50;;;8.00;86.40;;;;;;5024339;28;20112;-70
2021/11/20 03:56:43;;;;;;;47.85;19.95;;;8.00;86.40;;;;;;5015696;28;20066;-71
2021/11/20 03:59:09;;;;;;;52.60;21.23;;;8.00;86.20;;;;;;5030673;28;20535;-70
2021/11/20 04:01:36;;;;;;;52.80;22.17;;;8.00;85.90;;;;;;5030449;28;20029;-71
2021/11/20 04:04:02;;;;;;;58.38;23.23;;;8.00;85.80;;;;;;5027310;28;20033;-70
2021/11/20 04:06:28;;;;;;;62.30;23.65;;;8.00;85.50;;;;;;5028993;28;20037;-70
2021/11/20 04:08:54;;;;;;;53.30;22.45;;;8.10;85.70;;;;;;5029412;28;20036;-70
2021/11/20 04:11:28;;;;;;;52.33;21.58;;;8.10;85.50;;;;;;5025252;28;20025;-70
2021/11/20 04:13:55;;;;;;;39.63;16.67;;;8.10;85.80;;;;;;5032169;28;20374;-70
2021/11/20 04:16:24;;;;;;;46.70;21.40;;;8.00;86.00;;;;;;5029215;28;20018;-70
2021/11/20 04:18:50;;;;;;;52.25;21.90;;;8.00;86.00;;;;;;5023882;28;20076;-70
2021/11/20 04:21:17;;;;;;;47.92;21.33;;;8.00;86.00;;;;;;5017989;28;20025;-70
2021/11/20 04:23:47;;;;;;;42.00;18.98;;;8.00;86.10;;;;;;5030444;28;20088;-70
2021/11/20 04:26:18;;;;;;;38.08;17.35;;;8.00;86.00;;;;;;5018932;28;20025;-70
2021/11/20 04:28:44;;;;;;;33.10;14.35;;;8.00;86.00;;;;;;5027304;28;20035;-70
2021/11/20 04:31:10;;;;;;;47.92;19.50;;;8.00;86.30;;;;;;5021295;28;20038;-70
2021/11/20 04:33:36;;;;;;;38.10;18.30;;;7.90;86.20;;;;;;5020003;28;20022;-70
2021/11/20 04:36:04;;;;;;;42.95;18.85;;;8.00;86.00;;;;;;5016529;28;20507;-70
2021/11/20 04:38:30;;;;;;;40.55;18.42;;;8.00;86.10;;;;;;5013989;28;20048;-70
2021/11/20 04:40:56;;;;;;;41.15;18.02;;;7.90;86.00;;;;;;5018083;28;20489;-70
2021/11/20 04:43:22;;;;;;;34.05;16.02;;;8.00;86.00;;;;;;5018008;28;20022;-70
2021/11/20 04:45:49;;;;;;;37.35;15.80;;;8.00;86.00;;;;;;5017931;28;20394;-70
2021/11/20 04:48:15;;;;;;;32.33;13.93;;;8.00;86.00;;;;;;5017287;28;20444;-70
2021/11/20 04:50:41;;;;;;;30.13;14.13;;;8.00;86.20;;;;;;5013535;28;20121;-70
2021/11/20 04:53:07;;;;;;;31.02;14.88;;;7.90;86.00;;;;;;5017187;28;20026;-70
2021/11/20 04:55:33;;;;;;;31.98;16.08;;;7.90;86.00;;;;;;5017408;28;20052;-70
2021/11/20 04:57:59;;;;;;;30.00;13.13;;;7.90;85.90;;;;;;5021590;28;20026;-70
2021/11/20 05:00:32;;;;;;;31.55;15.52;;;7.90;85.90;;;;;;5027037;28;20029;-70
2021/11/20 05:02:59;;;;;;;31.85;15.15;;;7.90;85.90;;;;;;5015488;28;20117;-70
2021/11/20 05:05:25;;;;;;;26.95;14.00;;;7.90;85.80;;;;;;5014322;28;20573;-71
2021/11/20 05:07:51;;;;;;;22.27;10.60;;;7.90;85.90;;;;;;5017175;28;20018;-70
2021/11/20 05:10:17;;;;;;;33.88;15.32;;;7.90;86.10;;;;;;5016824;28;20028;-70
2021/11/20 05:12:44;;;;;;;30.70;14.60;;;7.90;86.00;;;;;;5017039;28;20022;-70
2021/11/20 05:15:12;;;;;;;32.83;14.45;;;7.90;86.10;;;;;;5017356;28;20484;-70
2021/11/20 05:17:38;;;;;;;35.75;15.48;;;7.90;86.10;;;;;;5012935;28;20037;-70
2021/11/20 05:20:05;;;;;;;26.73;12.98;;;7.90;86.10;;;;;;5026307;28;20042;-70
2021/11/20 05:22:31;;;;;;;29.67;14.23;;;7.90;86.10;;;;;;5021922;28;20370;-70
2021/11/20 05:24:57;;;;;;;30.25;14.20;;;7.90;86.20;;;;;;5022874;28;20033;-70
2021/11/20 05:27:22;;;;;;;32.42;13.40;;;7.90;86.10;;;;;;5026675;28;20159;-70
2021/11/20 05:29:59;;;;;;;35.63;16.30;;;7.90;86.00;;;;;;5024863;28;20080;-70
2021/11/20 05:32:25;;;;;;;22.92;11.82;;;7.90;86.00;;;;;;5025598;28;20485;-70
2021/11/20 05:34:51;;;;;;;26.40;12.90;;;7.90;86.20;;;;;;5029945;28;20032;-70
2021/11/20 05:37:17;;;;;;;27.92;14.93;;;7.90;86.30;;;;;;5027298;28;20021;-70
2021/11/20 05:39:43;;;;;;;27.42;14.55;;;7.80;86.10;;;;;;5023472;28;20033;-70
2021/11/20 05:42:09;;;;;;;31.20;15.80;;;7.80;86.10;;;;;;5021269;28;20025;-70
2021/11/20 05:44:35;;;;;;;28.40;12.98;;;7.80;86.20;;;;;;5027098;28;25704;-70
2021/11/20 05:47:01;;;;;;;30.13;14.05;;;7.80;86.40;;;;;;5031361;28;20045;-70
2021/11/20 05:49:30;;;;;;;33.38;15.13;;;7.80;86.70;;;;;;5027594;28;20079;-70
2021/11/20 05:51:56;;;;;;;33.42;15.88;;;7.80;86.80;;;;;;5029158;28;20048;-72
2021/11/20 05:54:23;;;;;;;29.77;14.48;;;7.80;86.80;;;;;;5026959;28;20491;-72
2021/11/20 05:56:51;;;;;;;28.98;12.75;;;7.80;86.60;;;;;;5014006;28;20432;-71
2021/11/20 05:59:17;;;;;;;25.23;13.45;;;7.80;86.60;;;;;;5030548;28;20045;-71
2021/11/20 06:01:45;;;;;;;26.10;11.77;;;7.80;86.70;;;;;;5030442;28;20026;-71
2021/11/20 06:04:12;;;;;;;29.90;14.00;;;7.80;86.80;;;;;;5019390;28;20026;-71
2021/11/20 06:06:38;;;;;;;31.20;14.18;;;7.80;86.80;;;;;;5026524;28;20091;-71
2021/11/20 06:09:05;;;;;;;30.60;14.25;;;7.80;86.90;;;;;;5027577;28;20026;-71
2021/11/20 06:11:31;;;;;;;35.70;16.23;;;7.80;86.80;;;;;;5013617;28;20037;-71
2021/11/20 06:13:56;;;;;;;31.52;15.27;;;7.80;86.80;;;;;;5029058;28;20029;-71
2021/11/20 06:16:22;;;;;;;30.10;14.63;;;7.90;86.80;;;;;;5019175;28;20036;-71
2021/11/20 06:18:48;;;;;;;26.75;13.35;;;7.90;87.50;;;;;;5026344;28;20023;-72
2021/11/20 06:21:14;;;;;;;31.20;13.88;;;7.90;86.50;;;;;;5028170;28;20044;-71
2021/11/20 06:23:40;;;;;;;35.97;16.48;;;7.90;86.50;;;;;;5022251;28;20113;-71
2021/11/20 06:26:08;;;;;;;29.27;13.30;;;7.90;86.50;;;;;;5026434;28;20037;-71
2021/11/20 06:28:35;;;;;;;30.10;15.13;;;7.90;86.50;;;;;;5027024;28;20057;-71
2021/11/20 06:31:01;;;;;;;29.02;15.00;;;7.90;86.40;;;;;;5027003;28;20087;-71
2021/11/20 06:33:28;;;;;;;35.55;15.93;;;7.90;87.10;;;;;;5023387;28;20025;-71
2021/11/20 06:35:55;;;;;;;33.67;15.30;;;7.90;86.10;;;;;;5026958;28;20041;-71
2021/11/20 06:38:21;;;;;;;32.20;14.65;;;7.90;86.10;;;;;;5028213;28;20104;-71
2021/11/20 06:40:51;;;;;;;29.80;15.93;;;7.90;85.90;;;;;;5017754;28;20128;-71
2021/11/20 06:43:22;;;;;;;21.27;11.95;;;7.90;85.60;;;;;;5026293;28;20034;-71
2021/11/20 06:45:50;;;;;;;30.35;15.48;;;7.90;85.70;;;;;;5026822;28;20026;-71
2021/11/20 06:48:16;;;;;;;28.27;14.45;;;7.90;85.80;;;;;;5025624;28;20488;-71
2021/11/20 06:50:45;;;;;;;21.88;12.43;;;7.90;85.60;;;;;;5012230;28;20144;-71
2021/11/20 06:53:13;;;;;;;27.33;13.35;;;7.90;85.60;;;;;;5026450;28;20029;-71
2021/11/20 06:55:40;;;;;;;27.80;14.07;;;7.90;85.60;;;;;;5028784;28;20034;-71
2021/11/20 07:00:44;;;;;;;26.08;15.07;;;7.90;85.50;;;;;;5028066;28;20037;-71
2021/11/20 07:03:16;;;;;;;29.17;14.75;;;7.80;85.70;;;;;;5029223;28;20080;-71
2021/11/20 07:05:48;;;;;;;23.42;12.50;;;7.90;85.90;;;;;;5021314;28;20033;-70
2021/11/20 07:08:15;;;;;;;29.50;14.80;;;7.90;86.00;;;;;;5013215;28;20023;-70
2021/11/20 07:11:02;;;;;;;29.52;16.20;;;7.90;85.20;;;;;;5169338;27;20425;-70
2021/11/20 07:13:29;;;;;;;31.67;15.90;;;7.90;85.80;;;;;;5144484;27;20018;-70
2021/11/20 07:15:55;;;;;;;30.95;16.48;;;7.90;85.70;;;;;;5174102;27;20022;-69
2021/11/20 07:18:22;;;;;;;32.83;16.17;;;7.90;85.60;;;;;;5173049;27;20029;-69
2021/11/20 07:20:49;;;;;;;33.08;17.20;;;7.90;85.40;;;;;;5147862;27;20022;-69
2021/11/20 07:23:15;;;;;;;32.20;17.23;;;7.90;85.30;;;;;;5163886;27;20019;-69
2021/11/20 07:25:41;;;;;;;31.80;17.90;;;7.90;85.00;;;;;;5153885;27;20037;-70
2021/11/20 07:28:08;;;;;;;33.53;18.10;;;7.90;85.30;;;;;;5163390;27;20022;-70
2021/11/20 07:30:36;;;;;;;35.10;18.63;;;7.90;85.10;;;;;;5159077;27;20500;-69
2021/11/20 07:33:04;;;;;;;35.63;16.92;;;7.90;85.10;;;;;;5158702;27;20022;-69
2021/11/20 07:35:40;;;;;;;37.00;17.88;;;7.90;85.20;;;;;;5158706;27;20054;-69
2021/11/20 07:38:08;;;;;;;30.30;17.05;;;7.90;85.00;;;;;;5166110;27;20094;-70
2021/11/20 07:40:36;;;;;;;33.33;17.50;;;7.90;84.90;;;;;;5154775;27;20515;-76
2021/11/20 07:43:03;;;;;;;31.95;17.50;;;8.00;84.90;;;;;;5161967;27;20500;-70
2021/11/20 07:45:28;;;;;;;35.35;17.92;;;8.00;84.80;;;;;;5160664;27;20034;-69
2021/11/20 07:47:54;;;;;;;34.83;19.02;;;7.90;84.70;;;;;;5149697;27;20023;-69
2021/11/20 07:50:21;;;;;;;34.50;18.52;;;8.00;84.60;;;;;;5166692;27;20038;-69
2021/11/20 07:52:48;;;;;;;34.42;17.60;;;8.00;84.40;;;;;;5154914;27;20087;-69
2021/11/20 07:55:15;;;;;;;35.35;18.58;;;8.00;84.60;;;;;;5157250;27;20602;-69
2021/11/20 07:57:42;;;;;;;31.52;17.65;;;8.00;84.20;;;;;;5163082;27;20019;-68
2021/11/20 08:00:14;;;;;;;33.08;18.73;;;8.00;84.10;;;;;;5164657;27;20033;-68
2021/11/20 08:02:42;;;;;;;35.42;18.35;;;8.10;84.10;;;;;;5155450;27;20038;-69
2021/11/20 08:05:09;;;;;;;33.60;18.05;;;8.10;83.90;;;;;;5183446;27;20516;-69
2021/11/20 08:07:36;;;;;;;31.75;17.73;;;8.10;83.80;;;;;;5171220;27;20050;-69
2021/11/20 08:10:06;;;;;;;29.00;13.52;;;8.10;83.70;;;;;;5174670;27;20034;-68
2021/11/20 08:12:32;;;;;;;26.17;15.73;;;8.20;83.20;;;;;;5174701;27;20041;-68
2021/11/20 08:14:58;;;;;;;26.67;14.77;;;8.20;83.10;;;;;;5161816;27;20023;-68
2021/11/20 08:17:25;;;;;;;27.38;15.75;;;8.20;83.00;;;;;;5160285;27;20019;-69
2021/11/20 08:19:50;;;;;;;28.80;15.70;;;8.20;82.80;;;;;;5167281;27;20042;-69
2021/11/20 08:22:16;;;;;;;29.40;14.73;;;8.20;82.80;;;;;;5152814;27;20034;-69
2021/11/20 08:24:42;;;;;;;28.50;15.23;;;8.30;82.80;;;;;;5149291;27;20049;-69
2021/11/20 08:27:09;;;;;;;29.10;15.73;;;8.30;82.70;;;;;;5145545;27;20025;-68
2021/11/20 08:29:37;;;;;;;26.05;13.48;;;8.30;82.50;;;;;;5148631;27;20060;-68
2021/11/20 08:32:08;;;;;;;24.55;13.43;;;8.40;82.30;;;;;;5152678;27;20465;-69
2021/11/20 08:34:34;;;;;;;28.42;15.40;;;8.40;82.00;;;;;;5150988;27;20060;-69
2021/11/20 08:37:00;;;;;;;31.63;15.30;;;8.40;81.80;;;;;;5153871;27;20142;-69
2021/11/20 08:39:28;;;;;;;28.58;15.30;;;8.40;81.60;;;;;;5146274;27;20521;-68
2021/11/20 08:41:54;;;;;;;25.77;14.70;;;8.50;81.60;;;;;;5150652;27;20106;-68
2021/11/20 08:44:20;;;;;;;27.10;14.93;;;8.50;81.60;;;;;;5140207;27;20549;-68
2021/11/20 08:46:46;;;;;;;25.70;14.13;;;8.60;81.50;;;;;;5145056;27;20030;-68
2021/11/20 08:49:13;;;;;;;22.10;12.75;;;8.60;81.30;;;;;;5150629;27;20029;-69
2021/11/20 08:51:40;;;;;;;23.58;14.23;;;8.70;80.80;;;;;;5149171;27;20035;-69
2021/11/20 08:54:06;;;;;;;23.95;12.60;;;8.70;80.50;;;;;;5153697;27;20015;-68
2021/11/20 08:56:37;;;;;;;20.92;13.25;;;8.80;80.50;;;;;;5152263;27;20409;-69
2021/11/20 08:59:04;;;;;;;23.20;13.43;;;8.80;81.00;;;;;;5158579;27;20102;-68
2021/11/20 09:01:43;;;;;;;18.17;10.15;;;8.80;79.70;;;;;;5154203;27;20033;-68
2021/11/20 09:04:30;;;;;;;19.38;12.27;;;8.80;79.40;;;;;;5154480;27;20027;-68
2021/11/20 09:07:12;;;;;;;23.77;11.35;;;8.90;78.80;;;;;;5154682;27;20079;-68
2021/11/20 09:09:52;;;;;;;22.92;12.35;;;8.90;78.80;;;;;;5150611;27;20034;-68
2021/11/20 09:12:28;;;;;;;20.85;13.13;;;8.90;79.10;;;;;;5147877;27;20063;-68
2021/11/20 09:15:22;;;;;;;22.20;12.52;;;9.00;79.30;;;;;;5165520;27;20031;-68
2021/11/20 09:17:49;;;;;;;24.38;13.70;;;9.00;79.20;;;;;;5134005;27;20039;-68
2021/11/20 09:20:17;;;;;;;19.27;11.68;;;9.10;79.30;;;;;;5155871;27;20030;-68
2021/11/20 09:22:42;;;;;;;20.50;10.45;;;9.10;79.30;;;;;;5157389;27;20027;-68
2021/11/20 09:25:09;;;;;;;18.83;12.32;;;9.10;78.70;;;;;;5159136;27;20022;-68
2021/11/20 09:27:36;;;;;;;23.35;12.85;;;9.10;78.10;;;;;;5162023;27;20058;-68
2021/11/20 09:30:09;;;;;;;22.48;11.88;;;9.10;78.20;;;;;;5153778;27;20041;-68
2021/11/20 09:32:35;;;;;;;19.50;11.50;;;9.10;78.20;;;;;;5148518;27;20185;-68
2021/11/20 09:35:02;;;;;;;18.27;11.43;;;9.20;77.90;;;;;;5143293;27;20016;-68
2021/11/20 09:37:28;;;;;;;19.60;12.32;;;9.20;77.90;;;;;;5148802;27;20481;-69
2021/11/20 09:39:56;;;;;;;18.77;11.52;;;9.20;78.20;;;;;;5145669;27;20031;-68
2021/11/20 09:42:26;;;;;;;21.20;12.63;;;9.20;78.40;;;;;;5143217;27;20394;-68
2021/11/20 09:44:55;;;;;;;19.38;9.82;;;9.20;78.00;;;;;;5148846;27;20043;-69
2021/11/20 09:47:32;;;;;;;16.38;10.00;;;9.20;77.40;;;;;;5145285;27;20015;-69
2021/11/20 09:50:07;;;;;;;19.02;12.35;;;9.20;77.70;;;;;;5142951;27;20481;-69
2021/11/20 09:52:33;;;;;;;20.38;12.88;;;9.20;77.30;;;;;;5129286;27;21060;-69
2021/11/20 09:54:59;;;;;;;19.50;12.27;;;9.20;77.50;;;;;;5132834;27;20105;-69
2021/11/20 09:57:35;;;;;;;17.88;11.48;;;9.20;77.40;;;;;;5146287;27;20147;-68
2021/11/20 10:00:38;;;;;;;18.60;11.65;;;9.20;77.30;;;;;;5143618;27;20115;-69
2021/11/20 10:03:09;;;;;;;18.05;12.07;;;9.30;77.40;;;;;;5135270;27;20105;-69
2021/11/20 10:05:39;;;;;;;21.05;13.20;;;9.20;77.10;;;;;;5145335;27;20026;-69
2021/11/20 10:08:23;;;;;;;20.77;12.63;;;9.20;77.00;;;;;;5148059;27;20035;-73
2021/11/20 10:10:57;;;;;;;18.90;12.40;;;9.20;77.40;;;;;;5147167;27;20078;-71
2021/11/20 10:13:28;;;;;;;22.52;12.23;;;9.20;77.00;;;;;;5152915;27;20118;-71
2021/11/20 10:16:18;;;;;;;17.30;9.85;;;9.20;77.20;;;;;;5153041;27;20037;-70
2021/11/20 10:18:51;;;;;;;19.40;12.32;;;9.20;77.10;;;;;;5153823;27;20064;-71
2021/11/20 10:21:28;;;;;;;18.42;12.00;;;9.20;76.60;;;;;;5142115;27;20108;-71
2021/11/20 10:24:29;;;;;;;19.38;11.23;;;9.20;76.70;;;;;;5149886;27;20106;-71
2021/11/20 10:27:24;;;;;;;22.80;12.93;;;9.20;76.70;;;;;;5117533;27;20409;-71
2021/11/20 10:30:27;;;;;;;18.80;11.32;;;9.20;76.90;;;;;;5134166;27;20525;-71
2021/11/20 10:33:00;;;;;;;18.02;11.93;;;9.20;76.60;;;;;;5149304;27;20027;-70
2021/11/20 10:35:28;;;;;;;19.13;11.93;;;9.20;76.60;;;;;;5151533;27;20066;-71
2021/11/20 10:38:00;;;;;;;17.70;10.63;;;9.30;77.00;;;;;;5155044;27;20061;-71
2021/11/20 10:40:35;;;;;;;17.45;10.60;;;9.30;76.30;;;;;;5144252;27;20073;-71
2021/11/20 10:43:18;;;;;;;18.17;11.02;;;9.40;75.80;;;;;;5152710;27;20045;-72
2021/11/20 10:45:50;;;;;;;18.08;11.52;;;9.50;75.20;;;;;;5151639;27;20098;-71
2021/11/20 10:48:34;;;;;;;16.05;11.10;;;9.60;74.80;;;;;;5149877;27;20041;-71
2021/11/20 10:51:21;;;;;;;15.60;9.80;;;9.60;74.50;;;;;;5149484;27;20035;-71
2021/11/20 10:54:05;;;;;;;26.40;11.13;;;9.70;73.80;;;;;;5132958;27;20502;-71
2021/11/20 10:56:45;;;;;;;17.70;11.75;;;9.80;74.00;;;;;;5150133;27;20082;-71
2021/11/20 10:59:20;;;;;;;16.90;11.18;;;9.80;74.20;;;;;;5149703;27;20063;-71
2021/11/20 11:02:13;;;;;;;19.75;11.10;;;9.80;74.00;;;;;;5158930;27;20034;-71
2021/11/20 11:05:30;;;;;;;18.40;11.88;;;9.80;74.30;;;;;;5153372;27;20500;-71
2021/11/20 11:08:41;;;;;;;15.60;9.63;;;9.90;74.20;;;;;;5053917;28;20028;-70
2021/11/20 11:11:44;;;;;;;18.75;11.77;;;9.90;74.20;;;;;;5048634;28;20052;-71
2021/11/20 11:14:20;;;;;;;14.23;9.85;;;10.00;74.10;;;;;;5059746;28;20033;-71
2021/11/20 11:17:07;;;;;;;17.20;9.73;;;10.10;73.70;;;;;;5059685;28;20043;-70
2021/11/20 11:19:56;;;;;;;16.45;10.48;;;10.10;72.70;;;;;;5110698;28;20027;-71
2021/11/20 11:22:24;;;;;;;14.30;9.95;;;10.00;72.40;;;;;;5090156;28;20044;-70
2021/11/20 11:25:10;;;;;;;17.08;10.10;;;10.10;72.20;;;;;;5088240;28;20599;-71
2021/11/20 11:27:55;;;;;;;17.52;11.05;;;10.10;72.10;;;;;;5083710;28;20048;-71
2021/11/20 11:30:45;;;;;;;20.15;11.48;;;10.10;71.60;;;;;;5073669;28;20090;-71
2021/11/20 11:33:11;;;;;;;16.00;11.05;;;10.10;72.30;;;;;;5086253;28;20068;-70
2021/11/20 11:35:40;;;;;;;15.38;10.02;;;10.10;74.20;;;;;;5065034;28;20075;-71
2021/11/20 11:38:30;;;;;;;17.20;10.45;;;10.10;72.60;;;;;;5081943;28;20031;-71
2021/11/20 11:41:14;;;;;;;15.93;9.70;;;10.10;72.10;;;;;;5085287;28;20032;-71
2021/11/20 11:43:49;;;;;;;14.70;10.45;;;10.10;71.90;;;;;;5091284;28;20097;-71
2021/11/20 11:46:20;;;;;;;17.48;11.25;;;10.10;71.70;;;;;;5094232;28;20071;-72
2021/11/20 11:48:55;;;;;;;16.58;11.07;;;10.10;72.20;;;;;;5078543;28;20024;-71
2021/11/20 11:51:43;;;;;;;17.13;10.88;;;10.10;72.50;;;;;;5087073;28;20111;-70
2021/11/20 11:54:11;;;;;;;16.75;10.32;;;10.10;72.20;;;;;;5101914;28;20027;-71
2021/11/20 11:56:42;;;;;;;16.70;10.90;;;10.10;71.70;;;;;;5087575;28;20055;-70
2021/11/20 11:59:08;;;;;;;14.35;10.48;;;10.10;71.80;;;;;;5097993;28;20039;-72
2021/11/20 12:02:12;;;;;;;16.67;10.13;;;10.10;71.60;;;;;;5110644;27;20035;-71
2021/11/20 12:04:42;;;;;;;14.57;9.68;;;10.10;71.50;;;;;;5115618;27;20030;-69
2021/11/20 12:07:45;;;;;;;13.43;9.93;;;10.10;71.30;;;;;;5109171;28;20035;-70
2021/11/20 12:10:23;;;;;;;18.10;10.75;;;10.10;71.60;;;;;;5131836;27;20031;-69
2021/11/20 12:13:04;;;;;;;13.57;9.40;;;10.30;71.00;;;;;;5146516;27;20014;-68
2021/11/20 12:15:43;;;;;;;12.68;8.90;;;10.40;70.00;;;;;;5143307;27;20031;-69
2021/11/20 12:18:44;;;;;;;15.57;10.20;;;10.30;70.00;;;;;;5155568;27;20491;-69
2021/11/20 12:21:27;;;;;;;14.80;9.90;;;10.40;70.00;;;;;;5097956;27;20611;-69
2021/11/20 12:24:08;;;;;;;15.40;10.23;;;10.30;69.90;;;;;;5139288;27;20058;-69
2021/11/20 12:26:42;;;;;;;15.10;10.48;;;10.30;70.20;;;;;;5144012;27;20030;-68
2021/11/20 12:29:37;;;;;;;14.95;10.43;;;10.30;70.70;;;;;;5144856;27;20014;-68
2021/11/20 12:32:21;;;;;;;15.75;11.55;;;10.30;71.00;;;;;;5152125;27;20115;-68
2021/11/20 12:35:00;;;;;;;19.17;11.35;;;10.30;71.40;;;;;;5150720;27;20489;-68
2021/11/20 12:37:39;;;;;;;16.65;11.07;;;10.30;71.90;;;;;;5140262;27;20023;-68
2021/11/20 12:40:40;;;;;;;15.00;10.55;;;10.30;71.80;;;;;;5147861;27;20044;-68
2021/11/20 12:43:28;;;;;;;14.98;10.27;;;10.30;71.60;;;;;;5144260;27;20031;-68
2021/11/20 12:46:27;;;;;;;16.25;10.70;;;10.40;70.70;;;;;;5154436;27;20049;-68
2021/11/20 12:49:10;;;;;;;16.10;10.52;;;10.30;70.60;;;;;;5152706;27;20054;-68
2021/11/20 12:51:54;;;;;;;15.02;10.43;;;10.30;71.00;;;;;;5146701;27;20097;-67
2021/11/20 12:54:41;;;;;;;14.77;10.50;;;10.30;70.80;;;;;;5152116;27;20023;-67
2021/11/20 12:57:12;;;;;;;17.55;11.07;;;10.30;71.00;;;;;;5150410;27;20077;-67
2021/11/20 12:59:47;;;;;;;16.30;10.88;;;10.20;71.20;;;;;;5145602;27;20029;-68
2021/11/20 13:02:50;;;;;;;19.17;12.43;;;10.20;71.30;;;;;;5149807;27;20054;-67